createdAt,value
2022-12-23T00:04:07.119Z,5.46
2022-12-23T00:09:10.191Z,5.47
2022-12-23T00:14:32.140Z,5.48
2022-12-23T00:19:35.241Z,5.48
2022-12-23T00:24:38.302Z,5.49
2022-12-23T00:29:41.349Z,5.51
2022-12-23T00:34:44.456Z,5.52
2022-12-23T00:40:07.070Z,5.53
2022-12-23T00:45:16.256Z,5.54
2022-12-23T00:50:19.784Z,5.55
2022-12-23T00:55:23.412Z,5.56
2022-12-23T01:00:45.297Z,5.56
2022-12-23T01:05:48.658Z,5.55
2022-12-23T01:10:51.761Z,5.53
2022-12-23T01:15:59.883Z,5.52
2022-12-23T01:21:06.985Z,5.51
2022-12-23T01:26:11.216Z,5.50
2022-12-23T01:31:14.477Z,5.49
2022-12-23T01:36:17.738Z,5.48
2022-12-23T01:41:42.139Z,5.47
2022-12-23T01:46:45.349Z,5.44
2022-12-23T01:51:48.483Z,5.42
2022-12-23T01:56:51.970Z,5.40
2022-12-23T02:02:13.863Z,5.38
2022-12-23T02:07:36.992Z,5.34
2022-12-23T02:13:06.728Z,5.31
2022-12-23T02:18:28.668Z,5.28
2022-12-23T02:23:31.777Z,5.25
2022-12-23T02:28:34.876Z,5.22
2022-12-23T02:33:37.982Z,5.20
2022-12-23T02:38:41.024Z,5.19
2022-12-23T02:43:47.274Z,5.17
2022-12-23T02:48:50.167Z,5.12
2022-12-23T02:53:55.936Z,5.07
2022-12-23T02:59:04.468Z,5.01
2022-12-23T03:04:07.632Z,4.96
2022-12-23T03:09:16.520Z,4.93
2022-12-23T03:14:19.413Z,4.92
2022-12-23T03:19:30.918Z,4.92
2022-12-23T03:24:37.923Z,4.91
2022-12-23T03:29:49.751Z,4.89
2022-12-23T03:34:54.982Z,4.87
2022-12-23T03:40:05.408Z,4.87
2022-12-23T03:50:39.521Z,4.87
2022-12-23T03:55:50.821Z,4.88
2022-12-23T04:01:11.386Z,4.88
2022-12-23T04:06:16.287Z,4.88
2022-12-23T04:11:19.796Z,4.89
2022-12-23T04:16:23.348Z,4.90
2022-12-23T04:21:27.339Z,4.91
2022-12-23T04:26:30.961Z,4.92
2022-12-23T04:31:34.345Z,4.93
2022-12-23T04:36:37.683Z,4.95
2022-12-23T04:41:40.797Z,4.96
2022-12-23T04:46:44.360Z,4.98
2022-12-23T04:51:47.727Z,5.00
2022-12-23T04:56:51.023Z,5.01
2022-12-23T05:01:54.231Z,5.01
2022-12-23T05:07:00.208Z,5.01
2022-12-23T05:12:03.323Z,5.00
2022-12-23T05:17:07.888Z,4.99
2022-12-23T05:22:11.467Z,4.94
2022-12-23T05:27:14.988Z,4.85
2022-12-23T05:32:18.362Z,4.76
2022-12-23T05:37:21.604Z,4.70
2022-12-23T05:42:24.811Z,4.68
2022-12-23T05:47:27.917Z,4.69
2022-12-23T05:52:31.034Z,4.69
2022-12-23T05:57:34.243Z,4.70
2022-12-23T06:02:37.497Z,4.70
2022-12-23T06:07:41.190Z,4.70
2022-12-23T06:12:44.263Z,4.70
2022-12-23T06:17:47.634Z,4.70
2022-12-23T06:22:50.685Z,4.71
2022-12-23T06:27:54.297Z,4.71
2022-12-23T06:32:57.407Z,4.72
2022-12-23T06:38:00.719Z,4.73
2022-12-23T06:43:03.822Z,4.74
2022-12-23T06:48:07.536Z,4.75
2022-12-23T06:53:10.647Z,4.76
2022-12-23T06:58:13.772Z,4.78
2022-12-23T07:03:17.021Z,4.79
2022-12-23T07:08:20.368Z,4.81
2022-12-23T07:13:23.594Z,4.82
2022-12-23T07:18:26.787Z,4.84
2022-12-23T07:23:29.891Z,4.84
2022-12-23T07:28:33.708Z,4.85
2022-12-23T07:33:37.143Z,4.86
2022-12-23T07:38:40.438Z,4.88
2022-12-23T07:43:43.947Z,4.90
2022-12-23T07:48:47.271Z,4.92
2022-12-23T07:53:50.981Z,4.96
2022-12-23T07:58:54.396Z,4.99
2022-12-23T08:03:58.049Z,5.03
2022-12-23T08:09:01.218Z,5.07
2022-12-23T08:14:04.322Z,5.11
2022-12-23T08:19:07.536Z,5.15
2022-12-23T08:24:10.839Z,5.20
2022-12-23T08:29:13.965Z,5.25
2022-12-23T08:34:17.608Z,5.29
2022-12-23T08:39:20.664Z,5.29
2022-12-23T08:44:27.218Z,5.26
2022-12-23T08:49:30.360Z,5.25
2022-12-23T08:54:33.672Z,5.26
2022-12-23T08:59:36.876Z,5.27
2022-12-23T09:04:40.398Z,5.27
2022-12-23T09:09:43.703Z,5.29
2022-12-23T09:14:50.309Z,5.32
2022-12-23T09:19:53.580Z,5.35
2022-12-23T09:25:01.287Z,5.37
2022-12-23T09:30:11.824Z,5.39
2022-12-23T09:35:17.219Z,5.40
2022-12-23T09:40:23.280Z,5.42
2022-12-23T09:45:27.050Z,5.43
2022-12-23T09:50:33.356Z,5.44
2022-12-23T09:55:40.732Z,5.44
2022-12-23T10:00:55.727Z,5.42
2022-12-23T10:06:03.847Z,5.41
2022-12-23T10:11:28.353Z,5.40
2022-12-23T10:16:39.258Z,5.43
2022-12-23T10:21:47.658Z,5.46
2022-12-23T10:26:51.603Z,5.50
2022-12-23T10:31:54.855Z,5.55
2022-12-23T10:36:58.009Z,5.58
2022-12-23T10:42:07.053Z,5.60
2022-12-23T10:47:16.421Z,5.61
2022-12-23T10:52:21.491Z,5.63
2022-12-23T10:57:26.472Z,5.63
2022-12-23T11:02:35.855Z,5.62
2022-12-23T11:07:45.167Z,5.64
2022-12-23T11:12:51.526Z,5.67
2022-12-23T11:17:59.519Z,5.72
2022-12-23T11:23:04.466Z,5.76
2022-12-23T11:28:14.054Z,5.83
2022-12-23T11:33:28.602Z,5.98
2022-12-23T11:38:32.520Z,6.10
2022-12-23T11:43:36.034Z,6.19
2022-12-23T11:48:40.066Z,6.33
2022-12-23T11:53:43.679Z,6.45
2022-12-23T11:58:49.041Z,6.49
2022-12-23T12:04:03.560Z,6.47
2022-12-23T12:09:07.441Z,6.42
2022-12-23T12:14:19.450Z,6.36
2022-12-23T12:19:32.197Z,6.30
2022-12-23T12:24:52.901Z,6.26
2022-12-23T12:29:59.457Z,6.24
2022-12-23T12:35:15.801Z,6.21
2022-12-23T12:40:30.310Z,6.20
2022-12-23T12:45:46.324Z,6.16
2022-12-23T12:50:58.713Z,6.11
2022-12-23T12:56:09.281Z,6.06
2022-12-23T13:01:18.625Z,6.03
2022-12-23T13:06:29.632Z,5.99
2022-12-23T13:11:36.013Z,5.94
2022-12-23T13:16:54.836Z,5.90
2022-12-23T13:21:58.298Z,5.85
2022-12-23T13:27:04.272Z,5.83
2022-12-23T13:32:31.342Z,5.81
2022-12-23T13:37:46.533Z,5.77
2022-12-23T13:42:52.919Z,5.74
2022-12-23T13:48:02.679Z,5.73
2022-12-23T13:53:16.456Z,5.70
2022-12-23T13:58:22.411Z,5.67
2022-12-23T14:03:26.440Z,5.65
2022-12-23T14:08:33.859Z,5.64
2022-12-23T14:13:41.364Z,5.64
2022-12-23T14:18:50.903Z,5.61
2022-12-23T14:24:14.498Z,5.56
2022-12-23T14:29:36.949Z,5.53
2022-12-23T14:35:00.021Z,5.51
2022-12-23T14:40:25.242Z,5.48
2022-12-23T14:45:34.408Z,5.43
2022-12-23T14:50:37.553Z,5.40
2022-12-23T14:55:41.736Z,5.37
2022-12-23T15:00:52.952Z,5.35
2022-12-23T15:05:58.079Z,5.33
2022-12-23T15:11:02.122Z,5.31
2022-12-23T15:16:06.090Z,5.29
2022-12-23T15:21:13.755Z,5.28
2022-12-23T15:26:18.497Z,5.28
2022-12-23T15:31:24.994Z,5.28
2022-12-23T15:36:35.895Z,5.28
2022-12-23T15:41:44.293Z,5.27
2022-12-23T15:46:48.148Z,5.27
2022-12-23T15:52:13.967Z,5.27
2022-12-23T15:57:19.727Z,5.26
2022-12-23T16:02:59.590Z,5.26
2022-12-23T16:08:09.254Z,5.25
2022-12-23T16:13:17.466Z,5.23
2022-12-23T16:18:31.881Z,5.23
2022-12-23T16:23:36.946Z,5.22
2022-12-23T16:28:41.676Z,5.21
2022-12-23T16:33:46.077Z,5.20
2022-12-23T16:38:50.313Z,5.20
2022-12-23T16:43:53.723Z,5.19
2022-12-23T16:48:58.890Z,5.20
2022-12-23T16:54:02.412Z,5.20
2022-12-23T16:59:05.707Z,5.19
2022-12-23T17:04:09.241Z,5.18
2022-12-23T17:09:12.840Z,5.18
2022-12-23T17:14:16.556Z,5.18
2022-12-23T17:19:27.396Z,5.16
2022-12-23T17:24:31.774Z,5.16
2022-12-23T17:29:34.888Z,5.16
2022-12-23T17:34:38.095Z,5.14
2022-12-23T17:39:42.223Z,5.14
2022-12-23T17:44:45.844Z,5.13
2022-12-23T17:49:49.571Z,5.11
2022-12-23T17:54:53.092Z,5.09
2022-12-23T17:59:57.408Z,5.07
2022-12-23T18:05:01.148Z,5.06
2022-12-23T18:10:05.976Z,5.05
2022-12-23T18:15:21.610Z,5.04
2022-12-23T18:20:27.552Z,5.04
2022-12-23T18:25:31.481Z,5.03
2022-12-23T18:30:36.194Z,5.02
2022-12-23T18:35:44.300Z,5.02
2022-12-23T18:40:50.212Z,5.02
2022-12-23T18:45:54.208Z,5.02
2022-12-23T18:50:57.858Z,5.02
2022-12-23T18:56:01.892Z,5.02
2022-12-23T19:01:05.968Z,5.03
2022-12-23T19:06:11.655Z,5.02
2022-12-23T19:11:16.954Z,5.01
2022-12-23T19:16:21.917Z,5.01
2022-12-23T19:21:25.194Z,5.00
2022-12-23T19:26:28.923Z,4.99
2022-12-23T19:31:34.369Z,4.98
2022-12-23T19:36:39.072Z,4.94
2022-12-23T19:41:42.635Z,4.90
2022-12-23T19:46:45.688Z,4.87
2022-12-23T19:51:49.497Z,4.87
2022-12-23T19:56:53.187Z,4.87
2022-12-23T20:01:57.296Z,4.87
2022-12-23T20:07:00.928Z,4.87
2022-12-23T20:12:04.961Z,4.88
2022-12-23T20:17:08.674Z,4.89
2022-12-23T20:22:12.601Z,4.91
2022-12-23T20:27:17.014Z,4.91
2022-12-23T20:32:21.472Z,4.92
2022-12-23T20:37:24.895Z,4.92
2022-12-23T20:42:28.317Z,4.92
2022-12-23T20:47:31.308Z,4.91
2022-12-23T20:52:34.823Z,4.91
2022-12-23T20:57:38.439Z,4.90
2022-12-23T21:02:41.781Z,4.89
2022-12-23T21:07:44.966Z,4.89
2022-12-23T21:12:48.076Z,4.89
2022-12-23T21:17:51.779Z,4.88
2022-12-23T21:22:55.298Z,4.82
2022-12-23T21:27:58.510Z,4.73
2022-12-23T21:33:04.048Z,4.68
2022-12-23T21:38:07.278Z,4.62
2022-12-23T21:43:10.690Z,4.56
2022-12-23T21:48:13.900Z,4.51
2022-12-23T21:53:17.116Z,4.47
2022-12-23T21:58:20.318Z,4.42
2022-12-23T22:03:23.834Z,4.38
2022-12-23T22:08:26.940Z,4.34
2022-12-23T22:13:30.147Z,4.30
2022-12-23T22:18:33.767Z,4.25
2022-12-23T22:23:37.895Z,4.19
2022-12-23T22:28:41.509Z,4.12
2022-12-23T22:33:44.926Z,4.03
2022-12-23T22:38:55.195Z,3.95
2022-12-23T22:43:59.355Z,3.89
2022-12-23T22:49:02.549Z,3.83
2022-12-23T22:54:05.751Z,3.77
2022-12-23T22:59:18.164Z,3.72
2022-12-23T23:04:21.173Z,3.66
2022-12-23T23:09:24.283Z,3.63
2022-12-23T23:14:27.379Z,3.62
2022-12-23T23:19:30.791Z,3.58
2022-12-23T23:24:34.515Z,3.55
2022-12-23T23:29:37.755Z,3.51
2022-12-23T23:34:42.366Z,3.49
2022-12-23T23:39:45.366Z,3.46
2022-12-23T23:44:48.371Z,3.42
2022-12-23T23:49:51.476Z,3.39
2022-12-23T23:54:54.683Z,3.37
2022-12-23T23:59:57.890Z,3.35
